sensor_id;sensor_type;location;lat;lon;timestamp;P1;durP1;ratioP1;P2;durP2;ratioP2
13795;SDS011;40911;51.552;9.874;2023-09-19T00:01:00;2.58;;;1.10;;
13795;SDS011;40911;51.552;9.874;2023-09-19T00:03:22;1.63;;;1.15;;
13795;SDS011;40911;51.552;9.874;2023-09-19T00:05:44;2.42;;;1.30;;
13795;SDS011;40911;51.552;9.874;2023-09-19T00:08:07;1.83;;;1.30;;
13795;SDS011;40911;51.552;9.874;2023-09-19T00:10:30;1.85;;;1.20;;
13795;SDS011;40911;51.552;9.874;2023-09-19T00:12:54;1.50;;;1.05;;
13795;SDS011;40911;51.552;9.874;2023-09-19T00:15:16;3.28;;;1.13;;
13795;SDS011;40911;51.552;9.874;2023-09-19T00:17:40;1.25;;;1.17;;
13795;SDS011;40911;51.552;9.874;2023-09-19T00:20:03;2.95;;;1.10;;
13795;SDS011;40911;51.552;9.874;2023-09-19T00:22:29;2.30;;;1.20;;
13795;SDS011;40911;51.552;9.874;2023-09-19T00:27:12;2.10;;;1.45;;
13795;SDS011;40911;51.552;9.874;2023-09-19T00:31:55;1.95;;;1.27;;
13795;SDS011;40911;51.552;9.874;2023-09-19T00:34:20;1.60;;;1.38;;
13795;SDS011;40911;51.552;9.874;2023-09-19T00:36:42;1.92;;;1.20;;
13795;SDS011;40911;51.552;9.874;2023-09-19T00:39:04;1.27;;;1.17;;
13795;SDS011;40911;51.552;9.874;2023-09-19T00:41:26;1.33;;;1.23;;
13795;SDS011;40911;51.552;9.874;2023-09-19T00:43:50;1.35;;;1.17;;
13795;SDS011;40911;51.552;9.874;2023-09-19T00:48:35;1.45;;;1.35;;
13795;SDS011;40911;51.552;9.874;2023-09-19T00:51:05;2.05;;;1.35;;
13795;SDS011;40911;51.552;9.874;2023-09-19T00:53:26;2.75;;;1.40;;
13795;SDS011;40911;51.552;9.874;2023-09-19T00:55:48;1.50;;;1.20;;
13795;SDS011;40911;51.552;9.874;2023-09-19T00:58:11;3.65;;;1.33;;
13795;SDS011;40911;51.552;9.874;2023-09-19T01:00:33;1.42;;;1.33;;
13795;SDS011;40911;51.552;9.874;2023-09-19T01:02:55;2.28;;;1.60;;
13795;SDS011;40911;51.552;9.874;2023-09-19T01:07:40;2.08;;;1.25;;
13795;SDS011;40911;51.552;9.874;2023-09-19T01:10:02;1.40;;;1.30;;
13795;SDS011;40911;51.552;9.874;2023-09-19T01:12:29;3.28;;;1.25;;
13795;SDS011;40911;51.552;9.874;2023-09-19T01:14:55;1.63;;;1.40;;
13795;SDS011;40911;51.552;9.874;2023-09-19T01:17:25;2.08;;;1.40;;
13795;SDS011;40911;51.552;9.874;2023-09-19T01:20:03;2.30;;;1.45;;
13795;SDS011;40911;51.552;9.874;2023-09-19T01:22:36;2.08;;;1.70;;
13795;SDS011;40911;51.552;9.874;2023-09-19T01:25:13;2.53;;;1.65;;
13795;SDS011;40911;51.552;9.874;2023-09-19T01:28:14;2.08;;;1.50;;
13795;SDS011;40911;51.552;9.874;2023-09-19T01:30:44;2.23;;;1.47;;
13795;SDS011;40911;51.552;9.874;2023-09-19T01:33:10;2.13;;;1.40;;
13795;SDS011;40911;51.552;9.874;2023-09-19T01:35:32;4.03;;;1.60;;
13795;SDS011;40911;51.552;9.874;2023-09-19T01:37:54;2.20;;;1.40;;
13795;SDS011;40911;51.552;9.874;2023-09-19T01:42:40;1.88;;;1.60;;
13795;SDS011;40911;51.552;9.874;2023-09-19T01:45:06;2.28;;;1.55;;
13795;SDS011;40911;51.552;9.874;2023-09-19T01:47:35;2.92;;;1.75;;
13795;SDS011;40911;51.552;9.874;2023-09-19T01:50:07;2.70;;;1.38;;
13795;SDS011;40911;51.552;9.874;2023-09-19T01:52:41;1.80;;;1.40;;
13795;SDS011;40911;51.552;9.874;2023-09-19T01:55:08;3.70;;;1.63;;
13795;SDS011;40911;51.552;9.874;2023-09-19T01:57:32;1.77;;;1.60;;
13795;SDS011;40911;51.552;9.874;2023-09-19T01:59:59;1.60;;;1.50;;
13795;SDS011;40911;51.552;9.874;2023-09-19T02:02:26;2.78;;;1.75;;
13795;SDS011;40911;51.552;9.874;2023-09-19T02:04:50;1.50;;;1.40;;
13795;SDS011;40911;51.552;9.874;2023-09-19T02:07:12;5.85;;;1.52;;
13795;SDS011;40911;51.552;9.874;2023-09-19T02:09:36;2.70;;;1.60;;
13795;SDS011;40911;51.552;9.874;2023-09-19T02:11:59;2.58;;;1.70;;
13795;SDS011;40911;51.552;9.874;2023-09-19T02:14:20;1.85;;;1.73;;
13795;SDS011;40911;51.552;9.874;2023-09-19T02:19:04;1.63;;;1.52;;
13795;SDS011;40911;51.552;9.874;2023-09-19T02:21:29;2.22;;;1.75;;
13795;SDS011;40911;51.552;9.874;2023-09-19T02:23:50;3.13;;;1.70;;
13795;SDS011;40911;51.552;9.874;2023-09-19T02:26:12;5.72;;;1.73;;
13795;SDS011;40911;51.552;9.874;2023-09-19T02:28:34;1.92;;;1.73;;
13795;SDS011;40911;51.552;9.874;2023-09-19T02:33:17;3.03;;;1.80;;
13795;SDS011;40911;51.552;9.874;2023-09-19T02:35:39;3.78;;;1.70;;
13795;SDS011;40911;51.552;9.874;2023-09-19T02:38:02;2.35;;;1.60;;
13795;SDS011;40911;51.552;9.874;2023-09-19T02:40:26;3.30;;;1.90;;
13795;SDS011;40911;51.552;9.874;2023-09-19T02:42:49;3.30;;;1.88;;
13795;SDS011;40911;51.552;9.874;2023-09-19T02:45:15;3.20;;;1.80;;
13795;SDS011;40911;51.552;9.874;2023-09-19T02:47:39;3.95;;;2.10;;
13795;SDS011;40911;51.552;9.874;2023-09-19T02:50:01;2.08;;;1.90;;
13795;SDS011;40911;51.552;9.874;2023-09-19T02:55:42;2.70;;;2.00;;
13795;SDS011;40911;51.552;9.874;2023-09-19T02:58:03;3.55;;;1.90;;
13795;SDS011;40911;51.552;9.874;2023-09-19T03:00:28;3.15;;;1.90;;
13795;SDS011;40911;51.552;9.874;2023-09-19T03:02:50;4.10;;;1.90;;
13795;SDS011;40911;51.552;9.874;2023-09-19T03:05:14;3.20;;;2.05;;
13795;SDS011;40911;51.552;9.874;2023-09-19T03:07:35;2.90;;;2.08;;
13795;SDS011;40911;51.552;9.874;2023-09-19T03:09:58;3.40;;;2.10;;
13795;SDS011;40911;51.552;9.874;2023-09-19T03:12:21;2.10;;;2.00;;
13795;SDS011;40911;51.552;9.874;2023-09-19T03:14:43;2.10;;;1.90;;
13795;SDS011;40911;51.552;9.874;2023-09-19T03:19:26;4.38;;;2.22;;
13795;SDS011;40911;51.552;9.874;2023-09-19T03:21:48;2.38;;;2.00;;
13795;SDS011;40911;51.552;9.874;2023-09-19T03:24:10;3.28;;;2.08;;
13795;SDS011;40911;51.552;9.874;2023-09-19T03:28:55;2.20;;;2.00;;
13795;SDS011;40911;51.552;9.874;2023-09-19T03:31:17;2.90;;;1.85;;
13795;SDS011;40911;51.552;9.874;2023-09-19T03:33:39;5.50;;;2.10;;
13795;SDS011;40911;51.552;9.874;2023-09-19T03:36:01;2.83;;;2.28;;
13795;SDS011;40911;51.552;9.874;2023-09-19T03:38:25;3.40;;;2.70;;
13795;SDS011;40911;51.552;9.874;2023-09-19T03:40:46;3.20;;;2.20;;
13795;SDS011;40911;51.552;9.874;2023-09-19T03:43:08;2.40;;;2.20;;
13795;SDS011;40911;51.552;9.874;2023-09-19T03:47:54;4.28;;;2.20;;
13795;SDS011;40911;51.552;9.874;2023-09-19T03:50:17;2.55;;;2.20;;
13795;SDS011;40911;51.552;9.874;2023-09-19T03:55:00;3.45;;;2.30;;
13795;SDS011;40911;51.552;9.874;2023-09-19T03:57:22;4.22;;;1.90;;
13795;SDS011;40911;51.552;9.874;2023-09-19T04:02:07;2.92;;;2.05;;
13795;SDS011;40911;51.552;9.874;2023-09-19T04:04:32;5.25;;;2.50;;
13795;SDS011;40911;51.552;9.874;2023-09-19T04:09:15;6.30;;;2.70;;
13795;SDS011;40911;51.552;9.874;2023-09-19T04:13:58;5.22;;;2.70;;
13795;SDS011;40911;51.552;9.874;2023-09-19T04:16:20;3.63;;;2.50;;
13795;SDS011;40911;51.552;9.874;2023-09-19T04:21:05;2.80;;;1.98;;
13795;SDS011;40911;51.552;9.874;2023-09-19T04:23:27;5.03;;;2.42;;
13795;SDS011;40911;51.552;9.874;2023-09-19T04:28:10;5.10;;;2.58;;
13795;SDS011;40911;51.552;9.874;2023-09-19T04:30:32;4.88;;;2.50;;
13795;SDS011;40911;51.552;9.874;2023-09-19T04:35:17;6.43;;;2.58;;
13795;SDS011;40911;51.552;9.874;2023-09-19T04:37:39;3.55;;;2.60;;
13795;SDS011;40911;51.552;9.874;2023-09-19T04:40:01;5.45;;;2.47;;
13795;SDS011;40911;51.552;9.874;2023-09-19T04:42:25;5.55;;;2.40;;
13795;SDS011;40911;51.552;9.874;2023-09-19T04:47:10;3.65;;;2.47;;
13795;SDS011;40911;51.552;9.874;2023-09-19T04:49:32;5.28;;;2.67;;
13795;SDS011;40911;51.552;9.874;2023-09-19T04:51:56;3.97;;;2.42;;
13795;SDS011;40911;51.552;9.874;2023-09-19T04:54:18;6.60;;;2.70;;
13795;SDS011;40911;51.552;9.874;2023-09-19T04:59:01;6.43;;;2.63;;
13795;SDS011;40911;51.552;9.874;2023-09-19T05:01:25;4.28;;;2.40;;
13795;SDS011;40911;51.552;9.874;2023-09-19T05:03:46;3.22;;;2.90;;
13795;SDS011;40911;51.552;9.874;2023-09-19T05:06:12;5.47;;;2.60;;
13795;SDS011;40911;51.552;9.874;2023-09-19T05:10:56;7.20;;;2.80;;
13795;SDS011;40911;51.552;9.874;2023-09-19T05:13:18;4.00;;;2.42;;
13795;SDS011;40911;51.552;9.874;2023-09-19T05:18:02;6.07;;;3.08;;
13795;SDS011;40911;51.552;9.874;2023-09-19T05:20:24;3.70;;;2.58;;
13795;SDS011;40911;51.552;9.874;2023-09-19T05:22:49;5.30;;;2.50;;
13795;SDS011;40911;51.552;9.874;2023-09-19T05:25:12;4.25;;;2.67;;
13795;SDS011;40911;51.552;9.874;2023-09-19T05:27:36;4.13;;;2.40;;
13795;SDS011;40911;51.552;9.874;2023-09-19T05:29:58;8.38;;;3.03;;
13795;SDS011;40911;51.552;9.874;2023-09-19T05:34:41;5.85;;;2.60;;
13795;SDS011;40911;51.552;9.874;2023-09-19T05:39:27;3.83;;;2.30;;
13795;SDS011;40911;51.552;9.874;2023-09-19T05:44:11;6.47;;;2.50;;
13795;SDS011;40911;51.552;9.874;2023-09-19T05:46:34;2.58;;;2.00;;
13795;SDS011;40911;51.552;9.874;2023-09-19T05:51:17;6.07;;;2.60;;
13795;SDS011;40911;51.552;9.874;2023-09-19T05:53:42;10.65;;;2.28;;
13795;SDS011;40911;51.552;9.874;2023-09-19T05:56:04;8.00;;;2.20;;
13795;SDS011;40911;51.552;9.874;2023-09-19T06:00:49;6.13;;;2.33;;
13795;SDS011;40911;51.552;9.874;2023-09-19T06:03:12;5.28;;;2.00;;
13795;SDS011;40911;51.552;9.874;2023-09-19T06:05:34;5.45;;;2.10;;
13795;SDS011;40911;51.552;9.874;2023-09-19T06:07:56;5.95;;;2.30;;
13795;SDS011;40911;51.552;9.874;2023-09-19T06:10:20;3.80;;;2.20;;
13795;SDS011;40911;51.552;9.874;2023-09-19T06:12:42;6.72;;;2.03;;
13795;SDS011;40911;51.552;9.874;2023-09-19T06:15:06;5.38;;;2.20;;
13795;SDS011;40911;51.552;9.874;2023-09-19T06:17:28;5.75;;;2.10;;
13795;SDS011;40911;51.552;9.874;2023-09-19T06:19:51;5.18;;;2.15;;
13795;SDS011;40911;51.552;9.874;2023-09-19T06:24:36;5.43;;;2.10;;
13795;SDS011;40911;51.552;9.874;2023-09-19T06:29:21;5.72;;;2.25;;
13795;SDS011;40911;51.552;9.874;2023-09-19T06:31:44;2.85;;;2.10;;
13795;SDS011;40911;51.552;9.874;2023-09-19T06:34:07;9.20;;;2.30;;
13795;SDS011;40911;51.552;9.874;2023-09-19T06:38:50;5.72;;;2.00;;
13795;SDS011;40911;51.552;9.874;2023-09-19T06:41:12;4.30;;;1.92;;
13795;SDS011;40911;51.552;9.874;2023-09-19T06:43:36;2.67;;;1.90;;
13795;SDS011;40911;51.552;9.874;2023-09-19T06:48:21;5.75;;;3.00;;
13795;SDS011;40911;51.552;9.874;2023-09-19T06:50:45;5.35;;;2.20;;
13795;SDS011;40911;51.552;9.874;2023-09-19T06:53:08;5.07;;;2.17;;
13795;SDS011;40911;51.552;9.874;2023-09-19T06:55:30;6.25;;;2.13;;
13795;SDS011;40911;51.552;9.874;2023-09-19T06:57:52;7.15;;;2.38;;
13795;SDS011;40911;51.552;9.874;2023-09-19T07:00:14;7.30;;;2.65;;
13795;SDS011;40911;51.552;9.874;2023-09-19T07:02:38;4.80;;;2.13;;
13795;SDS011;40911;51.552;9.874;2023-09-19T07:05:02;9.30;;;2.10;;
13795;SDS011;40911;51.552;9.874;2023-09-19T07:07:25;6.35;;;2.33;;
13795;SDS011;40911;51.552;9.874;2023-09-19T07:12:09;5.45;;;2.55;;
13795;SDS011;40911;51.552;9.874;2023-09-19T07:14:32;4.60;;;2.20;;
13795;SDS011;40911;51.552;9.874;2023-09-19T07:19:15;4.88;;;2.20;;
13795;SDS011;40911;51.552;9.874;2023-09-19T07:21:38;5.05;;;2.03;;
13795;SDS011;40911;51.552;9.874;2023-09-19T07:24:00;5.70;;;2.33;;
13795;SDS011;40911;51.552;9.874;2023-09-19T07:26:22;7.88;;;2.42;;
13795;SDS011;40911;51.552;9.874;2023-09-19T07:28:45;3.70;;;2.40;;
13795;SDS011;40911;51.552;9.874;2023-09-19T07:33:30;6.40;;;2.80;;
13795;SDS011;40911;51.552;9.874;2023-09-19T07:35:52;4.97;;;3.03;;
13795;SDS011;40911;51.552;9.874;2023-09-19T07:40:36;4.90;;;2.10;;
13795;SDS011;40911;51.552;9.874;2023-09-19T07:42:57;4.23;;;2.50;;
13795;SDS011;40911;51.552;9.874;2023-09-19T07:45:21;5.97;;;2.30;;
13795;SDS011;40911;51.552;9.874;2023-09-19T07:47:45;8.07;;;2.63;;
13795;SDS011;40911;51.552;9.874;2023-09-19T07:50:07;4.90;;;2.20;;
13795;SDS011;40911;51.552;9.874;2023-09-19T07:52:29;6.30;;;2.40;;
13795;SDS011;40911;51.552;9.874;2023-09-19T07:54:55;5.63;;;2.40;;
13795;SDS011;40911;51.552;9.874;2023-09-19T07:57:17;5.40;;;2.28;;
13795;SDS011;40911;51.552;9.874;2023-09-19T07:59:40;2.63;;;2.10;;
13795;SDS011;40911;51.552;9.874;2023-09-19T08:02:02;7.40;;;2.55;;
13795;SDS011;40911;51.552;9.874;2023-09-19T08:04:24;3.97;;;2.20;;
13795;SDS011;40911;51.552;9.874;2023-09-19T08:06:47;7.53;;;2.72;;
13795;SDS011;40911;51.552;9.874;2023-09-19T08:09:12;6.72;;;2.60;;
13795;SDS011;40911;51.552;9.874;2023-09-19T08:11:42;5.35;;;2.05;;
13795;SDS011;40911;51.552;9.874;2023-09-19T08:14:05;8.38;;;2.95;;
13795;SDS011;40911;51.552;9.874;2023-09-19T08:16:27;6.13;;;2.38;;
13795;SDS011;40911;51.552;9.874;2023-09-19T08:18:49;6.63;;;2.83;;
13795;SDS011;40911;51.552;9.874;2023-09-19T08:21:15;6.45;;;2.38;;
13795;SDS011;40911;51.552;9.874;2023-09-19T08:25:58;8.10;;;2.28;;
13795;SDS011;40911;51.552;9.874;2023-09-19T08:28:24;5.28;;;2.50;;
13795;SDS011;40911;51.552;9.874;2023-09-19T08:30:46;6.45;;;2.35;;
13795;SDS011;40911;51.552;9.874;2023-09-19T08:35:30;7.15;;;2.60;;
13795;SDS011;40911;51.552;9.874;2023-09-19T08:40:13;4.90;;;2.40;;
13795;SDS011;40911;51.552;9.874;2023-09-19T08:42:48;5.78;;;2.53;;
13795;SDS011;40911;51.552;9.874;2023-09-19T08:45:12;7.72;;;2.22;;
13795;SDS011;40911;51.552;9.874;2023-09-19T08:47:36;7.47;;;2.45;;
13795;SDS011;40911;51.552;9.874;2023-09-19T08:50:09;7.20;;;2.42;;
13795;SDS011;40911;51.552;9.874;2023-09-19T08:52:36;6.30;;;2.30;;
13795;SDS011;40911;51.552;9.874;2023-09-19T08:55:03;6.18;;;2.10;;
13795;SDS011;40911;51.552;9.874;2023-09-19T08:57:30;10.02;;;2.38;;
13795;SDS011;40911;51.552;9.874;2023-09-19T08:59:56;6.55;;;2.10;;
13795;SDS011;40911;51.552;9.874;2023-09-19T09:02:21;4.15;;;2.00;;
13795;SDS011;40911;51.552;9.874;2023-09-19T09:04:45;9.50;;;2.40;;
13795;SDS011;40911;51.552;9.874;2023-09-19T09:07:09;4.47;;;2.20;;
13795;SDS011;40911;51.552;9.874;2023-09-19T09:09:32;8.93;;;2.65;;
13795;SDS011;40911;51.552;9.874;2023-09-19T09:11:55;4.45;;;2.03;;
13795;SDS011;40911;51.552;9.874;2023-09-19T09:14:20;3.85;;;1.98;;
13795;SDS011;40911;51.552;9.874;2023-09-19T09:16:43;6.45;;;2.13;;
13795;SDS011;40911;51.552;9.874;2023-09-19T09:19:06;11.30;;;2.38;;
13795;SDS011;40911;51.552;9.874;2023-09-19T09:21:28;7.25;;;2.10;;
13795;SDS011;40911;51.552;9.874;2023-09-19T09:26:13;6.75;;;2.10;;
13795;SDS011;40911;51.552;9.874;2023-09-19T09:30:59;5.82;;;2.42;;
13795;SDS011;40911;51.552;9.874;2023-09-19T09:33:22;7.50;;;2.00;;
13795;SDS011;40911;51.552;9.874;2023-09-19T09:35:52;8.23;;;2.33;;
13795;SDS011;40911;51.552;9.874;2023-09-19T09:40:45;4.22;;;1.50;;
13795;SDS011;40911;51.552;9.874;2023-09-19T09:43:11;4.85;;;1.90;;
13795;SDS011;40911;51.552;9.874;2023-09-19T09:45:47;7.35;;;1.75;;
13795;SDS011;40911;51.552;9.874;2023-09-19T09:48:32;5.07;;;1.70;;
13795;SDS011;40911;51.552;9.874;2023-09-19T09:50:54;4.47;;;1.80;;
13795;SDS011;40911;51.552;9.874;2023-09-19T09:53:19;3.55;;;1.65;;
13795;SDS011;40911;51.552;9.874;2023-09-19T09:55:58;8.85;;;1.92;;
13795;SDS011;40911;51.552;9.874;2023-09-19T09:58:26;10.05;;;1.95;;
13795;SDS011;40911;51.552;9.874;2023-09-19T10:00:53;10.18;;;2.28;;
13795;SDS011;40911;51.552;9.874;2023-09-19T10:03:19;6.07;;;2.22;;
13795;SDS011;40911;51.552;9.874;2023-09-19T10:05:43;6.10;;;1.90;;
13795;SDS011;40911;51.552;9.874;2023-09-19T10:08:11;8.20;;;2.10;;
13795;SDS011;40911;51.552;9.874;2023-09-19T10:10:39;6.65;;;1.70;;
13795;SDS011;40911;51.552;9.874;2023-09-19T10:13:13;7.40;;;1.80;;
13795;SDS011;40911;51.552;9.874;2023-09-19T10:15:38;6.65;;;1.83;;
13795;SDS011;40911;51.552;9.874;2023-09-19T10:20:26;5.47;;;1.90;;
13795;SDS011;40911;51.552;9.874;2023-09-19T10:22:57;5.53;;;2.05;;
13795;SDS011;40911;51.552;9.874;2023-09-19T10:25:21;5.82;;;1.90;;
13795;SDS011;40911;51.552;9.874;2023-09-19T10:27:45;5.30;;;2.08;;
13795;SDS011;40911;51.552;9.874;2023-09-19T10:30:08;4.55;;;1.70;;
13795;SDS011;40911;51.552;9.874;2023-09-19T10:32:32;4.70;;;1.85;;
13795;SDS011;40911;51.552;9.874;2023-09-19T10:34:56;6.65;;;2.25;;
13795;SDS011;40911;51.552;9.874;2023-09-19T10:37:20;11.68;;;2.50;;
13795;SDS011;40911;51.552;9.874;2023-09-19T10:39:46;7.05;;;2.08;;
13795;SDS011;40911;51.552;9.874;2023-09-19T10:42:11;6.53;;;1.85;;
13795;SDS011;40911;51.552;9.874;2023-09-19T10:44:37;8.80;;;2.00;;
13795;SDS011;40911;51.552;9.874;2023-09-19T10:47:03;10.40;;;1.83;;
13795;SDS011;40911;51.552;9.874;2023-09-19T10:49:27;6.38;;;1.73;;
13795;SDS011;40911;51.552;9.874;2023-09-19T10:51:52;5.70;;;1.60;;
13795;SDS011;40911;51.552;9.874;2023-09-19T10:54:18;4.93;;;1.50;;
13795;SDS011;40911;51.552;9.874;2023-09-19T10:56:44;4.45;;;1.58;;
13795;SDS011;40911;51.552;9.874;2023-09-19T10:59:12;8.40;;;1.98;;
13795;SDS011;40911;51.552;9.874;2023-09-19T11:01:45;4.93;;;1.50;;
13795;SDS011;40911;51.552;9.874;2023-09-19T11:04:21;7.70;;;1.80;;
13795;SDS011;40911;51.552;9.874;2023-09-19T11:06:44;5.38;;;1.95;;
13795;SDS011;40911;51.552;9.874;2023-09-19T11:09:23;7.68;;;2.28;;
13795;SDS011;40911;51.552;9.874;2023-09-19T11:11:46;7.13;;;2.00;;
13795;SDS011;40911;51.552;9.874;2023-09-19T11:25:45;6.38;;;1.92;;
13795;SDS011;40911;51.552;9.874;2023-09-19T11:30:57;5.80;;;1.98;;
13795;SDS011;40911;51.552;9.874;2023-09-19T11:33:20;7.18;;;1.70;;
13795;SDS011;40911;51.552;9.874;2023-09-19T11:35:59;7.85;;;1.75;;
13795;SDS011;40911;51.552;9.874;2023-09-19T11:41:36;5.55;;;1.70;;
13795;SDS011;40911;51.552;9.874;2023-09-19T11:46:59;5.50;;;1.90;;
13795;SDS011;40911;51.552;9.874;2023-09-19T11:49:25;5.05;;;2.17;;
13795;SDS011;40911;51.552;9.874;2023-09-19T11:51:50;7.18;;;2.08;;
13795;SDS011;40911;51.552;9.874;2023-09-19T11:54:12;5.43;;;1.88;;
13795;SDS011;40911;51.552;9.874;2023-09-19T11:56:38;5.13;;;1.80;;
13795;SDS011;40911;51.552;9.874;2023-09-19T11:59:01;5.97;;;2.13;;
13795;SDS011;40911;51.552;9.874;2023-09-19T12:01:24;7.10;;;1.90;;
13795;SDS011;40911;51.552;9.874;2023-09-19T12:03:52;6.65;;;2.03;;
13795;SDS011;40911;51.552;9.874;2023-09-19T12:06:15;7.70;;;2.20;;
13795;SDS011;40911;51.552;9.874;2023-09-19T12:08:38;6.93;;;2.10;;
13795;SDS011;40911;51.552;9.874;2023-09-19T12:11:02;3.80;;;1.80;;
13795;SDS011;40911;51.552;9.874;2023-09-19T12:13:28;4.85;;;1.90;;
13795;SDS011;40911;51.552;9.874;2023-09-19T12:15:51;5.22;;;2.13;;
13795;SDS011;40911;51.552;9.874;2023-09-19T12:18:25;7.55;;;1.95;;
13795;SDS011;40911;51.552;9.874;2023-09-19T12:20:49;6.13;;;1.80;;
13795;SDS011;40911;51.552;9.874;2023-09-19T12:23:12;5.95;;;1.83;;
13795;SDS011;40911;51.552;9.874;2023-09-19T12:25:41;6.13;;;2.00;;
13795;SDS011;40911;51.552;9.874;2023-09-19T12:28:04;6.35;;;2.03;;
13795;SDS011;40911;51.552;9.874;2023-09-19T12:30:27;6.70;;;2.00;;
13795;SDS011;40911;51.552;9.874;2023-09-19T12:32:53;8.60;;;2.50;;
13795;SDS011;40911;51.552;9.874;2023-09-19T12:35:26;5.97;;;2.40;;
13795;SDS011;40911;51.552;9.874;2023-09-19T12:37:52;4.13;;;1.88;;
13795;SDS011;40911;51.552;9.874;2023-09-19T12:40:15;7.10;;;2.00;;
13795;SDS011;40911;51.552;9.874;2023-09-19T12:42:38;5.43;;;2.00;;
13795;SDS011;40911;51.552;9.874;2023-09-19T12:45:01;6.05;;;2.10;;
13795;SDS011;40911;51.552;9.874;2023-09-19T12:47:23;5.93;;;2.08;;
13795;SDS011;40911;51.552;9.874;2023-09-19T12:52:37;4.60;;;1.90;;
13795;SDS011;40911;51.552;9.874;2023-09-19T12:57:23;3.50;;;1.58;;
13795;SDS011;40911;51.552;9.874;2023-09-19T12:59:46;6.30;;;1.85;;
13795;SDS011;40911;51.552;9.874;2023-09-19T13:02:08;5.15;;;2.00;;
13795;SDS011;40911;51.552;9.874;2023-09-19T13:04:38;6.55;;;1.90;;
13795;SDS011;40911;51.552;9.874;2023-09-19T13:07:01;4.80;;;1.80;;
13795;SDS011;40911;51.552;9.874;2023-09-19T13:09:25;5.05;;;2.05;;
13795;SDS011;40911;51.552;9.874;2023-09-19T13:11:55;5.25;;;2.00;;
13795;SDS011;40911;51.552;9.874;2023-09-19T13:14:20;4.63;;;1.77;;
13795;SDS011;40911;51.552;9.874;2023-09-19T13:16:53;4.25;;;1.90;;
13795;SDS011;40911;51.552;9.874;2023-09-19T13:22:01;6.10;;;2.00;;
13795;SDS011;40911;51.552;9.874;2023-09-19T13:24:24;7.35;;;1.92;;
13795;SDS011;40911;51.552;9.874;2023-09-19T13:26:47;3.80;;;1.55;;
13795;SDS011;40911;51.552;9.874;2023-09-19T13:29:10;7.10;;;2.05;;
13795;SDS011;40911;51.552;9.874;2023-09-19T13:31:33;6.93;;;2.50;;
13795;SDS011;40911;51.552;9.874;2023-09-19T13:33:56;5.75;;;2.15;;
13795;SDS011;40911;51.552;9.874;2023-09-19T13:36:17;5.72;;;1.73;;
13795;SDS011;40911;51.552;9.874;2023-09-19T13:38:39;5.82;;;1.52;;
13795;SDS011;40911;51.552;9.874;2023-09-19T13:41:02;6.30;;;2.00;;
13795;SDS011;40911;51.552;9.874;2023-09-19T13:43:24;6.68;;;1.75;;
13795;SDS011;40911;51.552;9.874;2023-09-19T13:45:47;4.90;;;1.75;;
13795;SDS011;40911;51.552;9.874;2023-09-19T13:48:10;5.32;;;1.67;;
13795;SDS011;40911;51.552;9.874;2023-09-19T13:50:32;4.43;;;1.67;;
13795;SDS011;40911;51.552;9.874;2023-09-19T13:52:56;7.28;;;1.90;;
13795;SDS011;40911;51.552;9.874;2023-09-19T13:55:20;3.83;;;1.58;;
13795;SDS011;40911;51.552;9.874;2023-09-19T13:57:42;4.70;;;1.77;;
13795;SDS011;40911;51.552;9.874;2023-09-19T14:00:05;4.55;;;1.75;;
13795;SDS011;40911;51.552;9.874;2023-09-19T14:02:31;2.53;;;1.20;;
13795;SDS011;40911;51.552;9.874;2023-09-19T14:04:53;7.32;;;1.80;;
13795;SDS011;40911;51.552;9.874;2023-09-19T14:07:15;3.42;;;1.55;;
13795;SDS011;40911;51.552;9.874;2023-09-19T14:09:37;3.45;;;1.35;;
13795;SDS011;40911;51.552;9.874;2023-09-19T14:11:59;5.00;;;1.40;;
13795;SDS011;40911;51.552;9.874;2023-09-19T14:14:21;4.43;;;1.30;;
13795;SDS011;40911;51.552;9.874;2023-09-19T14:16:43;2.60;;;1.42;;
13795;SDS011;40911;51.552;9.874;2023-09-19T14:19:07;2.85;;;1.58;;
13795;SDS011;40911;51.552;9.874;2023-09-19T14:21:29;2.80;;;1.35;;
13795;SDS011;40911;51.552;9.874;2023-09-19T14:23:50;2.72;;;1.25;;
13795;SDS011;40911;51.552;9.874;2023-09-19T14:26:14;4.30;;;1.63;;
13795;SDS011;40911;51.552;9.874;2023-09-19T14:28:36;3.88;;;1.30;;
13795;SDS011;40911;51.552;9.874;2023-09-19T14:31:03;3.70;;;1.45;;
13795;SDS011;40911;51.552;9.874;2023-09-19T14:33:25;3.33;;;1.23;;
13795;SDS011;40911;51.552;9.874;2023-09-19T14:35:49;7.22;;;1.55;;
13795;SDS011;40911;51.552;9.874;2023-09-19T14:38:10;4.57;;;1.60;;
13795;SDS011;40911;51.552;9.874;2023-09-19T14:40:31;3.17;;;1.60;;
13795;SDS011;40911;51.552;9.874;2023-09-19T14:42:53;6.88;;;1.90;;
13795;SDS011;40911;51.552;9.874;2023-09-19T14:45:15;4.88;;;1.48;;
13795;SDS011;40911;51.552;9.874;2023-09-19T14:47:38;3.63;;;1.60;;
13795;SDS011;40911;51.552;9.874;2023-09-19T14:50:00;7.28;;;1.92;;
13795;SDS011;40911;51.552;9.874;2023-09-19T14:52:27;2.97;;;1.77;;
13795;SDS011;40911;51.552;9.874;2023-09-19T14:54:49;4.78;;;1.63;;
13795;SDS011;40911;51.552;9.874;2023-09-19T14:57:11;4.20;;;1.58;;
13795;SDS011;40911;51.552;9.874;2023-09-19T14:59:34;4.40;;;1.75;;
13795;SDS011;40911;51.552;9.874;2023-09-19T15:01:57;4.82;;;2.15;;
13795;SDS011;40911;51.552;9.874;2023-09-19T15:04:19;6.18;;;1.90;;
13795;SDS011;40911;51.552;9.874;2023-09-19T15:06:41;5.65;;;1.77;;
13795;SDS011;40911;51.552;9.874;2023-09-19T15:09:04;4.60;;;1.60;;
13795;SDS011;40911;51.552;9.874;2023-09-19T15:11:28;5.88;;;1.63;;
13795;SDS011;40911;51.552;9.874;2023-09-19T15:13:51;5.30;;;1.95;;
13795;SDS011;40911;51.552;9.874;2023-09-19T15:16:14;4.95;;;2.00;;
13795;SDS011;40911;51.552;9.874;2023-09-19T15:18:36;5.55;;;1.60;;
13795;SDS011;40911;51.552;9.874;2023-09-19T15:21:00;9.57;;;2.17;;
13795;SDS011;40911;51.552;9.874;2023-09-19T15:23:22;4.03;;;1.77;;
13795;SDS011;40911;51.552;9.874;2023-09-19T15:25:48;4.43;;;2.10;;
13795;SDS011;40911;51.552;9.874;2023-09-19T15:28:11;7.90;;;1.95;;
13795;SDS011;40911;51.552;9.874;2023-09-19T15:32:57;6.10;;;2.00;;
13795;SDS011;40911;51.552;9.874;2023-09-19T15:35:19;5.93;;;2.00;;
13795;SDS011;40911;51.552;9.874;2023-09-19T15:37:42;7.85;;;2.00;;
13795;SDS011;40911;51.552;9.874;2023-09-19T15:40:05;6.55;;;2.08;;
13795;SDS011;40911;51.552;9.874;2023-09-19T15:42:32;6.70;;;2.00;;
13795;SDS011;40911;51.552;9.874;2023-09-19T15:44:54;4.43;;;2.08;;
13795;SDS011;40911;51.552;9.874;2023-09-19T15:47:15;4.13;;;1.92;;
13795;SDS011;40911;51.552;9.874;2023-09-19T15:49:37;8.88;;;2.50;;
13795;SDS011;40911;51.552;9.874;2023-09-19T15:51:59;5.65;;;2.17;;
13795;SDS011;40911;51.552;9.874;2023-09-19T15:54:20;6.90;;;2.10;;
13795;SDS011;40911;51.552;9.874;2023-09-19T15:56:43;4.65;;;2.10;;
13795;SDS011;40911;51.552;9.874;2023-09-19T15:59:06;4.57;;;1.92;;
13795;SDS011;40911;51.552;9.874;2023-09-19T16:01:28;8.30;;;2.15;;
13795;SDS011;40911;51.552;9.874;2023-09-19T16:03:50;8.20;;;2.40;;
13795;SDS011;40911;51.552;9.874;2023-09-19T16:06:14;2.58;;;1.60;;
13795;SDS011;40911;51.552;9.874;2023-09-19T16:08:39;5.60;;;2.47;;
13795;SDS011;40911;51.552;9.874;2023-09-19T16:11:01;4.65;;;1.90;;
13795;SDS011;40911;51.552;9.874;2023-09-19T16:13:23;4.88;;;2.13;;
13795;SDS011;40911;51.552;9.874;2023-09-19T16:15:46;5.50;;;1.80;;
13795;SDS011;40911;51.552;9.874;2023-09-19T16:18:08;5.53;;;2.40;;
13795;SDS011;40911;51.552;9.874;2023-09-19T16:22:53;5.30;;;1.83;;
13795;SDS011;40911;51.552;9.874;2023-09-19T16:25:15;3.33;;;1.75;;
13795;SDS011;40911;51.552;9.874;2023-09-19T16:29:58;4.68;;;2.22;;
13795;SDS011;40911;51.552;9.874;2023-09-19T16:32:22;6.70;;;1.95;;
13795;SDS011;40911;51.552;9.874;2023-09-19T16:34:44;6.88;;;1.75;;
13795;SDS011;40911;51.552;9.874;2023-09-19T16:39:27;4.82;;;2.00;;
13795;SDS011;40911;51.552;9.874;2023-09-19T16:41:49;3.10;;;1.55;;
13795;SDS011;40911;51.552;9.874;2023-09-19T16:44:11;4.78;;;1.85;;
13795;SDS011;40911;51.552;9.874;2023-09-19T16:48:58;3.90;;;1.77;;